createdAt,value
2023-10-23T00:00:08.335Z,11.67
2023-10-23T00:00:26.158Z,11.67
2023-10-23T00:00:38.304Z,11.66
2023-10-23T00:00:50.235Z,11.67
2023-10-23T00:01:02.310Z,11.68
2023-10-23T00:01:14.199Z,11.68
2023-10-23T00:01:35.174Z,11.68
2023-10-23T00:01:47.032Z,11.67
2023-10-23T00:01:58.892Z,11.69
2023-10-23T00:02:10.950Z,11.67
2023-10-23T00:02:22.741Z,11.67
2023-10-23T00:02:34.550Z,11.67
2023-10-23T00:02:46.360Z,11.65
2023-10-23T00:02:58.195Z,11.66
2023-10-23T00:03:10.214Z,11.65
2023-10-23T00:03:22.308Z,11.65
2023-10-23T00:03:34.318Z,11.64
2023-10-23T00:03:46.564Z,11.66
2023-10-23T00:03:58.646Z,11.64
2023-10-23T00:04:10.779Z,11.62
2023-10-23T00:04:22.929Z,11.64
2023-10-23T00:04:34.993Z,11.64
2023-10-23T00:04:47.138Z,11.63
2023-10-23T00:04:59.607Z,11.63
2023-10-23T00:05:11.892Z,11.62
2023-10-23T00:05:23.967Z,11.61
2023-10-23T00:05:36.041Z,11.62
2023-10-23T00:05:47.920Z,11.61
2023-10-23T00:05:59.716Z,11.61
2023-10-23T00:06:11.529Z,11.60
2023-10-23T00:06:23.383Z,11.60
2023-10-23T00:06:35.698Z,11.60
2023-10-23T00:06:47.664Z,11.59
2023-10-23T00:06:59.524Z,11.59
2023-10-23T00:07:11.377Z,11.58
2023-10-23T00:07:23.169Z,11.59
2023-10-23T00:07:35.081Z,11.58
2023-10-23T00:07:46.859Z,11.59
2023-10-23T00:07:58.675Z,11.58
2023-10-23T00:08:10.512Z,11.56
2023-10-23T00:08:22.336Z,11.57
2023-10-23T00:08:34.175Z,11.57
2023-10-23T00:08:45.959Z,11.56
2023-10-23T00:08:57.888Z,11.55
2023-10-23T00:09:09.622Z,11.55
2023-10-23T00:09:21.492Z,11.54
2023-10-23T00:09:33.414Z,11.54
2023-10-23T00:09:45.280Z,11.54
2023-10-23T00:09:57.135Z,11.53
2023-10-23T00:10:09.865Z,11.53
2023-10-23T00:10:23.007Z,11.51
2023-10-23T00:10:34.824Z,11.52
2023-10-23T00:10:46.632Z,11.52
2023-10-23T00:10:58.465Z,11.51
2023-10-23T00:11:10.252Z,11.50
2023-10-23T00:11:23.030Z,11.50
2023-10-23T00:11:34.901Z,11.50
2023-10-23T00:11:46.687Z,11.51
2023-10-23T00:11:58.486Z,11.49
2023-10-23T00:12:10.394Z,11.49
2023-10-23T00:12:22.232Z,11.49
2023-10-23T00:12:34.065Z,11.49
2023-10-23T00:12:46.046Z,11.49
2023-10-23T00:12:57.984Z,11.48
2023-10-23T00:13:09.832Z,11.48
2023-10-23T00:13:21.663Z,11.48
2023-10-23T00:13:33.470Z,11.48
2023-10-23T00:13:45.360Z,11.48
2023-10-23T00:13:57.667Z,11.47
2023-10-23T00:14:09.470Z,11.46
2023-10-23T00:14:21.302Z,11.47
2023-10-23T00:14:33.208Z,11.47
2023-10-23T00:14:44.986Z,11.47
2023-10-23T00:14:56.784Z,11.46
2023-10-23T00:15:09.209Z,11.46
2023-10-23T00:15:21.059Z,11.46
2023-10-23T00:15:33.391Z,11.46
2023-10-23T00:15:45.303Z,11.45
2023-10-23T00:15:57.241Z,11.45
2023-10-23T00:16:09.294Z,11.45
2023-10-23T00:16:21.626Z,11.45
2023-10-23T00:16:33.476Z,11.46
2023-10-23T00:16:45.450Z,11.45
2023-10-23T00:16:57.284Z,11.46
2023-10-23T00:17:09.067Z,11.44
2023-10-23T00:17:20.861Z,11.44
2023-10-23T00:17:34.228Z,11.45
2023-10-23T00:17:45.995Z,11.44
2023-10-23T00:17:57.790Z,11.43
2023-10-23T00:18:09.655Z,11.44
2023-10-23T00:18:21.622Z,11.43
2023-10-23T00:18:33.460Z,11.42
2023-10-23T00:18:45.358Z,11.43
2023-10-23T00:18:57.281Z,11.42
2023-10-23T00:19:09.110Z,11.42
2023-10-23T00:19:20.872Z,11.42
2023-10-23T00:19:32.747Z,11.42
2023-10-23T00:19:44.493Z,11.43
2023-10-23T00:19:56.288Z,11.43
2023-10-23T00:20:09.225Z,11.42
2023-10-23T00:20:21.523Z,11.43
2023-10-23T00:20:33.309Z,11.44
2023-10-23T00:20:45.076Z,11.42
2023-10-23T00:20:56.877Z,11.42
2023-10-23T00:21:09.285Z,11.45
2023-10-23T00:21:21.331Z,11.43
2023-10-23T00:21:33.236Z,11.42
2023-10-23T00:21:45.046Z,11.42
2023-10-23T00:21:56.798Z,11.41
2023-10-23T00:22:08.642Z,11.42
2023-10-23T00:22:20.516Z,11.41
2023-10-23T00:22:32.341Z,11.41
2023-10-23T00:22:44.150Z,11.40
2023-10-23T00:22:55.976Z,11.41
2023-10-23T00:23:07.679Z,11.39
2023-10-23T00:23:19.496Z,11.39
2023-10-23T00:23:31.275Z,11.39
2023-10-23T00:23:57.007Z,11.35
2023-10-23T00:24:16.341Z,11.37
2023-10-23T00:24:31.277Z,11.37
2023-10-23T00:24:43.651Z,11.38
2023-10-23T00:24:56.027Z,11.30
2023-10-23T00:25:11.634Z,11.33
2023-10-23T00:25:25.514Z,11.37
2023-10-23T00:25:38.106Z,11.33
2023-10-23T00:25:50.357Z,11.37
2023-10-23T00:26:02.693Z,11.37
2023-10-23T00:26:15.059Z,11.34
2023-10-23T00:26:35.453Z,11.36
2023-10-23T00:26:47.863Z,11.36
2023-10-23T00:26:59.966Z,11.35
2023-10-23T00:27:12.124Z,11.31
2023-10-23T00:27:24.834Z,11.35
2023-10-23T00:27:37.292Z,11.35
2023-10-23T00:27:52.290Z,11.35
2023-10-23T00:28:04.819Z,11.34
2023-10-23T00:28:16.944Z,11.35
2023-10-23T00:28:29.551Z,11.37
2023-10-23T00:28:42.066Z,11.28
2023-10-23T00:28:54.565Z,11.30
2023-10-23T00:29:08.988Z,11.32
2023-10-23T00:29:24.227Z,11.31
2023-10-23T00:29:36.543Z,11.33
2023-10-23T00:29:49.811Z,11.30
2023-10-23T00:30:04.728Z,11.25
2023-10-23T00:30:17.364Z,11.29
2023-10-23T00:30:31.244Z,11.33
2023-10-23T00:30:45.399Z,11.33
2023-10-23T00:30:58.720Z,11.31
2023-10-23T00:31:11.819Z,11.32
2023-10-23T00:31:26.076Z,11.32
2023-10-23T00:31:38.520Z,11.27
2023-10-23T00:31:50.944Z,11.31
2023-10-23T00:32:04.256Z,11.27
2023-10-23T00:32:16.604Z,11.33
2023-10-23T00:32:29.128Z,11.33
2023-10-23T00:32:43.683Z,11.33
2023-10-23T00:32:56.187Z,11.33
2023-10-23T00:33:09.111Z,11.33
2023-10-23T00:33:22.187Z,11.33
2023-10-23T00:33:34.739Z,11.32
2023-10-23T00:33:47.355Z,11.33
2023-10-23T00:34:00.231Z,11.26
2023-10-23T00:34:12.947Z,11.32
2023-10-23T00:34:25.261Z,11.29
2023-10-23T00:34:37.766Z,11.34
2023-10-23T00:34:50.759Z,11.34
2023-10-23T00:35:03.278Z,11.30
2023-10-23T00:35:17.029Z,11.33
2023-10-23T00:35:29.558Z,11.33
2023-10-23T00:35:41.884Z,11.32
2023-10-23T00:35:54.791Z,11.34
2023-10-23T00:36:08.013Z,11.34
2023-10-23T00:36:20.543Z,11.28
2023-10-23T00:36:33.124Z,11.33
2023-10-23T00:36:45.825Z,11.34
2023-10-23T00:36:58.047Z,11.32
2023-10-23T00:37:11.540Z,11.27
2023-10-23T00:37:23.713Z,11.32
2023-10-23T00:37:36.211Z,11.27
2023-10-23T00:37:48.860Z,11.32
2023-10-23T00:38:01.175Z,11.32
2023-10-23T00:38:13.439Z,11.34
2023-10-23T00:38:25.771Z,11.27
2023-10-23T00:38:38.537Z,11.31
2023-10-23T00:38:50.736Z,11.34
2023-10-23T00:39:03.486Z,11.33
2023-10-23T00:39:15.726Z,11.30
2023-10-23T00:39:27.839Z,11.30
2023-10-23T00:39:40.286Z,11.33
2023-10-23T00:39:52.565Z,11.31
2023-10-23T00:40:05.447Z,11.33
2023-10-23T00:40:18.208Z,11.33
2023-10-23T00:40:32.494Z,11.34
2023-10-23T00:40:44.776Z,11.32
2023-10-23T00:40:57.282Z,11.33
2023-10-23T00:41:09.583Z,11.33
2023-10-23T00:41:22.590Z,11.33
2023-10-23T00:41:35.010Z,11.35
2023-10-23T00:41:48.066Z,11.33
2023-10-23T00:42:00.725Z,11.33
2023-10-23T00:42:13.058Z,11.35
2023-10-23T00:42:25.504Z,11.34
2023-10-23T00:42:37.712Z,11.36
2023-10-23T00:42:50.111Z,11.36
2023-10-23T00:43:12.540Z,11.37
2023-10-23T00:43:25.981Z,11.36
2023-10-23T00:43:38.274Z,11.32
2023-10-23T00:43:50.330Z,11.33
2023-10-23T00:44:02.477Z,11.38
2023-10-23T00:44:14.873Z,11.36
2023-10-23T00:44:27.198Z,11.32
2023-10-23T00:44:39.335Z,11.37
2023-10-23T00:44:51.537Z,11.34
2023-10-23T00:45:06.018Z,11.33
2023-10-23T00:45:18.221Z,11.36
2023-10-23T00:45:30.515Z,11.35
2023-10-23T00:45:50.357Z,11.36
2023-10-23T00:46:05.604Z,11.34
2023-10-23T00:46:21.724Z,11.35
2023-10-23T00:46:34.077Z,11.31
2023-10-23T00:46:46.715Z,11.36
2023-10-23T00:46:59.007Z,11.36
2023-10-23T00:47:12.066Z,11.36
2023-10-23T00:47:25.037Z,11.34
2023-10-23T00:47:37.134Z,11.35
2023-10-23T00:47:50.116Z,11.30
2023-10-23T00:48:02.906Z,11.35
2023-10-23T00:48:15.406Z,11.31
2023-10-23T00:48:28.258Z,11.31
2023-10-23T00:48:40.666Z,11.36
2023-10-23T00:48:52.986Z,11.34
2023-10-23T00:49:05.393Z,11.29
2023-10-23T00:49:17.584Z,11.34
2023-10-23T00:49:30.260Z,11.30
2023-10-23T00:49:42.804Z,11.34
2023-10-23T00:49:55.132Z,11.33
2023-10-23T00:50:08.209Z,11.31
2023-10-23T00:50:20.426Z,11.27
2023-10-23T00:50:32.675Z,11.30
2023-10-23T00:50:44.945Z,11.28
2023-10-23T00:50:59.610Z,11.32
2023-10-23T00:51:12.864Z,11.27
2023-10-23T00:51:25.412Z,11.33
2023-10-23T00:51:38.103Z,11.32
2023-10-23T00:51:51.100Z,11.32
2023-10-23T00:52:03.700Z,11.25
2023-10-23T00:52:16.396Z,11.31
2023-10-23T00:52:28.904Z,11.33
2023-10-23T00:52:41.395Z,11.31
2023-10-23T00:52:53.777Z,11.28
2023-10-23T00:53:06.668Z,11.28
2023-10-23T00:53:20.001Z,11.25
2023-10-23T00:53:34.840Z,11.24
2023-10-23T00:53:47.443Z,11.28
2023-10-23T00:54:00.077Z,11.25
2023-10-23T00:54:12.790Z,11.25
2023-10-23T00:54:25.540Z,11.29
2023-10-23T00:54:39.885Z,11.28
2023-10-23T00:54:53.961Z,11.26
2023-10-23T00:55:07.688Z,11.27
2023-10-23T00:55:20.006Z,11.26
2023-10-23T00:55:33.827Z,11.27
2023-10-23T00:55:47.301Z,11.20
2023-10-23T00:56:00.781Z,11.23
2023-10-23T00:56:13.361Z,11.20
2023-10-23T00:56:27.451Z,11.24
2023-10-23T00:56:39.841Z,11.21
2023-10-23T00:56:52.172Z,11.26
2023-10-23T00:57:05.325Z,11.26
2023-10-23T00:57:17.741Z,11.25
2023-10-23T00:57:29.985Z,11.25
2023-10-23T00:57:42.587Z,11.25
2023-10-23T00:57:54.957Z,11.19
2023-10-23T00:58:07.937Z,11.24
2023-10-23T00:58:21.095Z,11.24
2023-10-23T00:58:33.949Z,11.24
2023-10-23T00:58:47.733Z,11.25
2023-10-23T00:59:01.880Z,11.17
2023-10-23T00:59:14.901Z,11.23
2023-10-23T00:59:27.153Z,11.19
2023-10-23T00:59:39.678Z,11.23
2023-10-23T00:59:56.023Z,11.21
2023-10-23T01:00:09.892Z,11.16
2023-10-23T01:00:22.669Z,11.19
2023-10-23T01:00:36.308Z,11.22
2023-10-23T01:00:49.323Z,11.21
2023-10-23T01:01:03.061Z,11.21
2023-10-23T01:01:16.094Z,11.19
2023-10-23T01:01:30.288Z,11.20
2023-10-23T01:01:44.968Z,11.17
2023-10-23T01:01:57.849Z,11.18
2023-10-23T01:02:10.766Z,11.18
2023-10-23T01:02:23.252Z,11.21
2023-10-23T01:02:35.835Z,11.21
2023-10-23T01:02:48.243Z,11.17
2023-10-23T01:03:01.035Z,11.17
2023-10-23T01:03:13.121Z,11.19
2023-10-23T01:03:25.771Z,11.19
2023-10-23T01:03:37.793Z,11.18
2023-10-23T01:03:50.111Z,11.15
2023-10-23T01:04:03.008Z,11.21
2023-10-23T01:04:15.190Z,11.17
2023-10-23T01:04:27.936Z,11.19
2023-10-23T01:04:47.815Z,11.22
2023-10-23T01:05:00.212Z,11.18
2023-10-23T01:05:12.432Z,11.19
2023-10-23T01:05:24.989Z,11.15
2023-10-23T01:05:37.982Z,11.17
2023-10-23T01:05:50.213Z,11.19
2023-10-23T01:06:02.572Z,11.18
2023-10-23T01:06:14.776Z,11.18
2023-10-23T01:06:27.713Z,11.15
2023-10-23T01:06:40.044Z,11.21
2023-10-23T01:06:52.289Z,11.21
2023-10-23T01:07:04.594Z,11.20
2023-10-23T01:07:16.816Z,11.21
2023-10-23T01:07:29.185Z,11.21
2023-10-23T01:07:41.171Z,11.20
2023-10-23T01:07:53.325Z,11.17
2023-10-23T01:08:05.709Z,11.18
2023-10-23T01:08:18.858Z,11.22
2023-10-23T01:08:31.654Z,11.21
2023-10-23T01:08:44.509Z,11.20
2023-10-23T01:08:57.402Z,11.22
2023-10-23T01:09:09.632Z,11.22
2023-10-23T01:09:22.052Z,11.22
2023-10-23T01:09:34.383Z,11.20
2023-10-23T01:09:46.481Z,11.22
2023-10-23T01:09:59.049Z,11.18
2023-10-23T01:10:11.338Z,11.23
2023-10-23T01:10:23.775Z,11.22
2023-10-23T01:10:37.216Z,11.21
2023-10-23T01:10:49.586Z,11.20
2023-10-23T01:11:01.819Z,11.20
2023-10-23T01:11:14.084Z,11.19
2023-10-23T01:11:26.427Z,11.18
2023-10-23T01:11:38.706Z,11.17
2023-10-23T01:11:50.794Z,11.18
2023-10-23T01:12:02.966Z,11.20
2023-10-23T01:12:15.132Z,11.15
2023-10-23T01:12:27.769Z,11.21
2023-10-23T01:12:40.071Z,11.20
2023-10-23T01:12:54.460Z,11.20
2023-10-23T01:13:07.614Z,11.23
2023-10-23T01:13:20.122Z,11.19
2023-10-23T01:13:32.298Z,11.20
2023-10-23T01:13:44.602Z,11.19
2023-10-23T01:13:56.576Z,11.20
2023-10-23T01:14:10.288Z,11.14
2023-10-23T01:14:22.518Z,11.20
2023-10-23T01:14:34.647Z,11.18
2023-10-23T01:14:46.749Z,11.12
2023-10-23T01:14:58.720Z,11.16
2023-10-23T01:15:14.695Z,11.18
2023-10-23T01:15:27.244Z,11.17
2023-10-23T01:15:39.558Z,11.17
2023-10-23T01:15:51.795Z,11.19
2023-10-23T01:16:04.209Z,11.13
2023-10-23T01:16:16.895Z,11.16
2023-10-23T01:16:29.198Z,11.13
2023-10-23T01:16:41.627Z,11.15
2023-10-23T01:16:53.958Z,11.16
2023-10-23T01:17:06.483Z,11.12
2023-10-23T01:17:18.798Z,11.13
2023-10-23T01:17:34.071Z,11.13
2023-10-23T01:17:46.424Z,11.16
2023-10-23T01:17:58.553Z,11.16
2023-10-23T01:18:10.986Z,11.15
2023-10-23T01:18:23.126Z,11.13
2023-10-23T01:18:35.671Z,11.15
2023-10-23T01:18:48.034Z,11.13
2023-10-23T01:19:00.518Z,11.15
2023-10-23T01:19:12.695Z,11.16
2023-10-23T01:19:24.893Z,11.10
2023-10-23T01:19:37.247Z,11.13
2023-10-23T01:19:49.582Z,11.12
2023-10-23T01:20:02.158Z,11.16
2023-10-23T01:20:16.401Z,11.13
2023-10-23T01:20:29.523Z,11.16
2023-10-23T01:20:42.236Z,11.15
2023-10-23T01:20:54.412Z,11.11
2023-10-23T01:21:07.878Z,11.17
2023-10-23T01:21:19.955Z,11.16
2023-10-23T01:21:32.109Z,11.18
2023-10-23T01:21:44.668Z,11.19
2023-10-23T01:21:57.103Z,11.19
2023-10-23T01:22:12.174Z,11.21
2023-10-23T01:22:24.468Z,11.21
2023-10-23T01:22:36.681Z,11.21
2023-10-23T01:22:49.564Z,11.17
2023-10-23T01:23:03.611Z,11.20
2023-10-23T01:23:16.321Z,11.20
2023-10-23T01:23:33.048Z,11.20
2023-10-23T01:23:48.754Z,11.22
2023-10-23T01:24:02.172Z,11.17
2023-10-23T01:24:17.784Z,11.24
2023-10-23T01:24:34.242Z,11.25
2023-10-23T01:24:50.033Z,11.24
2023-10-23T01:25:03.096Z,11.23
2023-10-23T01:25:17.476Z,11.23
2023-10-23T01:25:30.263Z,11.24
2023-10-23T01:25:42.431Z,11.20
2023-10-23T01:25:54.706Z,11.25
2023-10-23T01:26:06.819Z,11.25
2023-10-23T01:26:19.024Z,11.23
2023-10-23T01:26:31.385Z,11.26
2023-10-23T01:26:43.472Z,11.23
2023-10-23T01:26:55.727Z,11.22
2023-10-23T01:27:07.918Z,11.25
2023-10-23T01:27:21.074Z,11.27
2023-10-23T01:27:33.194Z,11.24
2023-10-23T01:27:45.391Z,11.24
2023-10-23T01:27:57.800Z,11.27
2023-10-23T01:28:10.008Z,11.25
2023-10-23T01:28:22.232Z,11.24
2023-10-23T01:28:34.471Z,11.29
2023-10-23T01:28:46.624Z,11.24
2023-10-23T01:28:58.603Z,11.26
2023-10-23T01:29:10.800Z,11.28
2023-10-23T01:29:23.725Z,11.29
2023-10-23T01:29:36.017Z,11.26
2023-10-23T01:29:48.171Z,11.27
2023-10-23T01:30:00.237Z,11.30
2023-10-23T01:30:12.565Z,11.28
2023-10-23T01:30:24.809Z,11.30
2023-10-23T01:30:36.977Z,11.29
2023-10-23T01:30:49.345Z,11.30
2023-10-23T01:31:02.334Z,11.25
2023-10-23T01:31:14.744Z,11.31
2023-10-23T01:31:27.140Z,11.32
2023-10-23T01:31:39.490Z,11.33
2023-10-23T01:31:52.199Z,11.29
2023-10-23T01:32:04.846Z,11.32
2023-10-23T01:32:16.872Z,11.32
2023-10-23T01:32:29.118Z,11.32
2023-10-23T01:32:41.298Z,11.28
2023-10-23T01:32:53.366Z,11.29
2023-10-23T01:33:05.739Z,11.28
2023-10-23T01:33:18.014Z,11.30
2023-10-23T01:33:30.450Z,11.29
2023-10-23T01:33:42.522Z,11.28
2023-10-23T01:33:55.913Z,11.25
2023-10-23T01:34:08.392Z,11.29
2023-10-23T01:34:20.584Z,11.28
2023-10-23T01:34:32.767Z,11.27
2023-10-23T01:34:44.932Z,11.22
2023-10-23T01:34:57.258Z,11.27
2023-10-23T01:35:11.088Z,11.23
2023-10-23T01:35:23.165Z,11.27
2023-10-23T01:35:36.812Z,11.26
2023-10-23T01:35:48.854Z,11.26
2023-10-23T01:36:01.217Z,11.22
2023-10-23T01:36:13.421Z,11.26
2023-10-23T01:36:25.591Z,11.25
2023-10-23T01:36:37.693Z,11.26
2023-10-23T01:36:49.964Z,11.23
2023-10-23T01:37:02.212Z,11.21
2023-10-23T01:37:14.173Z,11.25
2023-10-23T01:37:26.560Z,11.24
2023-10-23T01:37:39.006Z,11.23
2023-10-23T01:37:51.270Z,11.24
2023-10-23T01:38:03.477Z,11.25
2023-10-23T01:38:17.229Z,11.23
2023-10-23T01:38:29.552Z,11.25
2023-10-23T01:38:44.085Z,11.21
2023-10-23T01:38:56.257Z,11.22
2023-10-23T01:39:08.666Z,11.22
2023-10-23T01:39:20.862Z,11.22
2023-10-23T01:39:33.280Z,11.23
2023-10-23T01:39:45.652Z,11.23
2023-10-23T01:39:57.813Z,11.25
2023-10-23T01:40:11.029Z,11.25
2023-10-23T01:40:24.821Z,11.26
2023-10-23T01:40:36.801Z,11.28
2023-10-23T01:40:49.084Z,11.24
2023-10-23T01:41:01.896Z,11.19
2023-10-23T01:41:14.004Z,11.23
2023-10-23T01:41:26.282Z,11.24
2023-10-23T01:41:38.529Z,11.23
2023-10-23T01:41:50.723Z,11.27
2023-10-23T01:42:03.938Z,11.21
2023-10-23T01:42:16.160Z,11.24
2023-10-23T01:42:28.626Z,11.25
2023-10-23T01:42:44.166Z,11.24
2023-10-23T01:42:56.689Z,11.25
2023-10-23T01:43:09.057Z,11.18
2023-10-23T01:43:22.469Z,11.26
2023-10-23T01:43:37.424Z,11.20
2023-10-23T01:43:49.652Z,11.24
2023-10-23T01:44:02.000Z,11.21
2023-10-23T01:44:14.388Z,11.14
2023-10-23T01:44:26.526Z,11.23
2023-10-23T01:44:38.913Z,11.20
2023-10-23T01:44:51.051Z,11.18
2023-10-23T01:45:11.564Z,11.15
2023-10-23T01:45:24.122Z,11.16
2023-10-23T01:45:36.455Z,11.16
2023-10-23T01:45:48.838Z,11.17
2023-10-23T01:46:01.116Z,11.17
2023-10-23T01:46:13.694Z,11.16
2023-10-23T01:46:25.754Z,11.10
2023-10-23T01:46:38.297Z,11.10
2023-10-23T01:46:50.704Z,11.15
2023-10-23T01:47:02.957Z,11.15
2023-10-23T01:47:15.189Z,11.11
2023-10-23T01:47:28.337Z,11.13
2023-10-23T01:47:40.543Z,11.13
2023-10-23T01:47:52.949Z,11.13
2023-10-23T01:48:06.027Z,11.11
2023-10-23T01:48:19.606Z,11.07
2023-10-23T01:48:31.868Z,11.08
2023-10-23T01:48:44.202Z,11.11
2023-10-23T01:48:56.384Z,11.08
2023-10-23T01:49:08.793Z,11.02
2023-10-23T01:49:20.881Z,11.05
2023-10-23T01:49:35.031Z,11.08
2023-10-23T01:49:47.282Z,11.06
2023-10-23T01:49:59.576Z,11.02
2023-10-23T01:50:12.039Z,11.06
2023-10-23T01:50:24.466Z,11.02
2023-10-23T01:50:37.857Z,11.05
2023-10-23T01:50:51.697Z,11.03
2023-10-23T01:51:04.303Z,11.02
2023-10-23T01:51:16.510Z,11.02
2023-10-23T01:51:28.837Z,10.98
2023-10-23T01:51:40.972Z,11.00
2023-10-23T01:51:54.741Z,10.99
2023-10-23T01:52:07.068Z,11.01
2023-10-23T01:52:19.553Z,11.01
2023-10-23T01:52:31.646Z,11.01
2023-10-23T01:52:44.101Z,10.95
2023-10-23T01:52:56.436Z,11.00
2023-10-23T01:53:08.747Z,10.98
2023-10-23T01:53:20.942Z,11.00
2023-10-23T01:53:33.194Z,10.98
2023-10-23T01:53:45.374Z,10.98
2023-10-23T01:54:01.867Z,11.00
2023-10-23T01:54:14.016Z,10.95
2023-10-23T01:54:26.258Z,10.94
2023-10-23T01:54:38.675Z,10.98
2023-10-23T01:54:51.959Z,10.96
2023-10-23T01:55:04.834Z,10.96
2023-10-23T01:55:17.339Z,10.97
2023-10-23T01:55:32.970Z,10.96
2023-10-23T01:55:45.327Z,10.97
2023-10-23T01:55:57.399Z,10.94
2023-10-23T01:56:09.831Z,10.97
2023-10-23T01:56:22.280Z,10.96
2023-10-23T01:56:36.384Z,10.98
2023-10-23T01:56:48.504Z,10.93
2023-10-23T01:57:00.820Z,10.96
2023-10-23T01:57:13.446Z,10.95
2023-10-23T01:57:26.014Z,10.94
2023-10-23T01:57:38.315Z,10.90
2023-10-23T01:57:50.602Z,10.95
2023-10-23T01:58:02.913Z,10.91
2023-10-23T01:58:15.089Z,10.87
2023-10-23T01:58:27.493Z,10.94
2023-10-23T01:58:39.798Z,10.92
2023-10-23T01:58:52.692Z,10.90
2023-10-23T01:59:05.370Z,10.90
2023-10-23T01:59:17.674Z,10.91
2023-10-23T01:59:29.754Z,10.91
2023-10-23T01:59:42.554Z,10.87
2023-10-23T01:59:55.002Z,10.90
2023-10-23T02:00:08.980Z,10.90
2023-10-23T02:00:29.019Z,10.91
2023-10-23T02:00:41.300Z,10.92
2023-10-23T02:00:53.562Z,10.87
2023-10-23T02:01:05.981Z,10.85
2023-10-23T02:01:22.632Z,10.88
2023-10-23T02:01:35.055Z,10.88
2023-10-23T02:01:47.401Z,10.85
2023-10-23T02:01:59.497Z,10.87
2023-10-23T02:02:11.761Z,10.83
2023-10-23T02:02:23.935Z,10.86
2023-10-23T02:02:36.316Z,10.86
2023-10-23T02:02:48.599Z,10.86
2023-10-23T02:03:00.917Z,10.87
2023-10-23T02:03:13.728Z,10.81
2023-10-23T02:03:25.968Z,10.81
2023-10-23T02:03:41.055Z,10.85
2023-10-23T02:03:53.646Z,10.85
2023-10-23T02:04:06.248Z,10.85
2023-10-23T02:04:18.384Z,10.85
2023-10-23T02:04:30.684Z,10.85
2023-10-23T02:04:43.017Z,10.86
2023-10-23T02:04:55.730Z,10.85
2023-10-23T02:05:08.382Z,10.85
2023-10-23T02:05:20.876Z,10.88
2023-10-23T02:05:33.141Z,10.84
2023-10-23T02:05:45.252Z,10.85
2023-10-23T02:05:57.341Z,10.85
2023-10-23T02:06:10.046Z,10.81
2023-10-23T02:06:22.241Z,10.86
2023-10-23T02:06:34.487Z,10.85
2023-10-23T02:06:46.585Z,10.87
2023-10-23T02:06:59.106Z,10.83
2023-10-23T02:07:11.807Z,10.80
2023-10-23T02:07:24.172Z,10.84
2023-10-23T02:07:36.372Z,10.85
2023-10-23T02:07:48.591Z,10.87
2023-10-23T02:08:00.911Z,10.85
2023-10-23T02:08:13.299Z,10.85
2023-10-23T02:08:25.562Z,10.85
2023-10-23T02:08:37.858Z,10.83
2023-10-23T02:08:49.977Z,10.88
2023-10-23T02:09:02.180Z,10.86
2023-10-23T02:09:14.460Z,10.85
2023-10-23T02:09:26.562Z,10.84
2023-10-23T02:09:38.903Z,10.85
2023-10-23T02:09:53.241Z,10.80
2023-10-23T02:10:06.177Z,10.87
2023-10-23T02:10:18.354Z,10.87
2023-10-23T02:10:32.189Z,10.87
2023-10-23T02:10:44.493Z,10.84
2023-10-23T02:10:56.449Z,10.85
2023-10-23T02:11:09.289Z,10.86
2023-10-23T02:11:21.509Z,10.83
2023-10-23T02:11:33.835Z,10.83
2023-10-23T02:11:46.222Z,10.83
2023-10-23T02:11:58.603Z,10.86
2023-10-23T02:12:10.913Z,10.88
2023-10-23T02:12:23.279Z,10.84
2023-10-23T02:12:35.617Z,10.87
2023-10-23T02:12:47.731Z,10.86
2023-10-23T02:12:59.873Z,10.87
2023-10-23T02:13:12.946Z,10.82
2023-10-23T02:13:25.219Z,10.86
2023-10-23T02:13:38.045Z,10.79
2023-10-23T02:13:50.084Z,10.85
2023-10-23T02:14:02.369Z,10.86
2023-10-23T02:14:14.705Z,10.81
2023-10-23T02:14:28.317Z,10.86
2023-10-23T02:14:40.675Z,10.85
2023-10-23T02:14:52.991Z,10.79
2023-10-23T02:15:07.699Z,10.84
2023-10-23T02:15:19.865Z,10.84
2023-10-23T02:15:33.910Z,10.85
2023-10-23T02:15:45.996Z,10.85
2023-10-23T02:15:58.423Z,10.85
2023-10-23T02:16:10.716Z,10.88
2023-10-23T02:16:22.922Z,10.85
2023-10-23T02:16:35.243Z,10.82
2023-10-23T02:16:47.623Z,10.83
2023-10-23T02:17:03.260Z,10.83
2023-10-23T02:17:16.793Z,10.85
2023-10-23T02:17:29.741Z,10.82
2023-10-23T02:17:42.564Z,10.84
2023-10-23T02:17:54.926Z,10.85
2023-10-23T02:18:08.785Z,10.84
2023-10-23T02:18:20.898Z,10.83
2023-10-23T02:18:33.354Z,10.83
2023-10-23T02:18:48.469Z,10.83
2023-10-23T02:19:01.522Z,10.83
2023-10-23T02:19:14.078Z,10.82
2023-10-23T02:19:26.487Z,10.83
2023-10-23T02:19:38.904Z,10.83
2023-10-23T02:19:51.189Z,10.79
2023-10-23T02:20:03.632Z,10.79
2023-10-23T02:20:16.133Z,10.83
2023-10-23T02:20:28.908Z,10.82
2023-10-23T02:20:41.368Z,10.79
2023-10-23T02:20:54.483Z,10.82
2023-10-23T02:21:09.617Z,10.82
2023-10-23T02:21:21.832Z,10.80
2023-10-23T02:21:37.138Z,10.80
2023-10-23T02:21:49.643Z,10.82
2023-10-23T02:22:02.162Z,10.81
2023-10-23T02:22:14.400Z,10.77
2023-10-23T02:22:26.745Z,10.82
2023-10-23T02:22:39.122Z,10.79
2023-10-23T02:22:51.302Z,10.82
2023-10-23T02:23:03.498Z,10.80
2023-10-23T02:23:19.109Z,10.83
2023-10-23T02:23:40.928Z,10.83
2023-10-23T02:24:01.649Z,10.76
2023-10-23T02:24:13.843Z,10.81
2023-10-23T02:24:26.028Z,10.83
2023-10-23T02:24:38.635Z,10.84
2023-10-23T02:24:51.819Z,10.81
2023-10-23T02:25:05.641Z,10.84
2023-10-23T02:25:18.352Z,10.83
2023-10-23T02:25:39.553Z,10.81
2023-10-23T02:25:51.937Z,10.79
2023-10-23T02:26:04.692Z,10.78
2023-10-23T02:26:17.135Z,10.84
2023-10-23T02:26:30.303Z,10.76
2023-10-23T02:26:43.186Z,10.77
2023-10-23T02:26:55.594Z,10.84
2023-10-23T02:27:08.072Z,10.86
2023-10-23T02:27:20.410Z,10.81
2023-10-23T02:27:34.379Z,10.87
2023-10-23T02:27:46.790Z,10.82
2023-10-23T02:27:59.274Z,10.84
2023-10-23T02:28:11.677Z,10.81
2023-10-23T02:28:23.823Z,10.78
2023-10-23T02:28:36.561Z,10.85
2023-10-23T02:28:49.160Z,10.86
2023-10-23T02:29:02.102Z,10.83
2023-10-23T02:29:14.510Z,10.83
2023-10-23T02:29:27.086Z,10.85
2023-10-23T02:29:40.262Z,10.83
2023-10-23T02:29:52.899Z,10.81
2023-10-23T02:30:06.668Z,10.86
2023-10-23T02:30:19.255Z,10.85
2023-10-23T02:30:31.967Z,10.86
2023-10-23T02:30:44.334Z,10.85
2023-10-23T02:30:57.087Z,10.87
2023-10-23T02:31:09.573Z,10.81
2023-10-23T02:31:25.724Z,10.82
2023-10-23T02:31:38.498Z,10.86
2023-10-23T02:31:51.173Z,10.85
2023-10-23T02:32:03.854Z,10.84
2023-10-23T02:32:16.125Z,10.87
2023-10-23T02:32:28.547Z,10.88
2023-10-23T02:32:40.718Z,10.86
2023-10-23T02:32:52.913Z,10.87
2023-10-23T02:33:05.528Z,10.86
2023-10-23T02:33:17.802Z,10.83
2023-10-23T02:33:30.826Z,10.86
2023-10-23T02:33:45.490Z,10.84
2023-10-23T02:33:57.802Z,10.86
2023-10-23T02:34:10.495Z,10.87
2023-10-23T02:34:22.845Z,10.82
2023-10-23T02:34:36.208Z,10.84
2023-10-23T02:35:00.802Z,10.86
2023-10-23T02:35:14.210Z,10.87
2023-10-23T02:35:26.323Z,10.84
2023-10-23T02:35:43.299Z,10.85
2023-10-23T02:35:55.545Z,10.86
2023-10-23T02:36:08.346Z,10.83
2023-10-23T02:36:20.566Z,10.83
2023-10-23T02:36:33.130Z,10.86
2023-10-23T02:36:45.663Z,10.85
2023-10-23T02:36:57.903Z,10.85
2023-10-23T02:37:10.371Z,10.83
2023-10-23T02:37:23.056Z,10.81
2023-10-23T02:37:35.333Z,10.85
2023-10-23T02:37:47.813Z,10.86
2023-10-23T02:38:00.113Z,10.83
2023-10-23T02:38:12.528Z,10.81
2023-10-23T02:38:24.734Z,10.85
2023-10-23T02:38:38.304Z,10.82
2023-10-23T02:38:50.721Z,10.82
2023-10-23T02:39:03.079Z,10.81
2023-10-23T02:39:15.392Z,10.84
2023-10-23T02:39:28.905Z,10.85
2023-10-23T02:39:42.220Z,10.83
2023-10-23T02:39:54.519Z,10.81
2023-10-23T02:40:07.923Z,10.85
2023-10-23T02:40:20.293Z,10.80
2023-10-23T02:40:33.771Z,10.82
2023-10-23T02:40:52.150Z,10.80
2023-10-23T02:41:04.222Z,10.83
2023-10-23T02:41:16.392Z,10.83
2023-10-23T02:41:29.716Z,10.86
2023-10-23T02:41:41.942Z,10.83
2023-10-23T02:41:54.098Z,10.86
2023-10-23T02:42:06.230Z,10.83
2023-10-23T02:42:18.383Z,10.83
2023-10-23T02:42:30.862Z,10.83
2023-10-23T02:42:45.161Z,10.87
2023-10-23T02:42:57.256Z,10.81
2023-10-23T02:43:09.348Z,10.83
2023-10-23T02:43:23.384Z,10.85
2023-10-23T02:43:35.467Z,10.85
2023-10-23T02:43:51.342Z,10.85
2023-10-23T02:44:03.420Z,10.86
2023-10-23T02:44:15.615Z,10.80
2023-10-23T02:44:27.805Z,10.85
2023-10-23T02:44:40.109Z,10.79